Mineral Point, Missouri
Current Conditions -  °F | °C
As of 11:35 AM on Saturday 22 Nov 2014 (Local Time) from KFAM Reporting Station
Overcast Overcast  
Wind Chill: 52°   Ceiling: 3600
Heat Index: 52°   Visibility: 10mi
Dew Point: 48°   Wind: 10mph
Humidity: 88%   Direction: 150°SSE
Pressure: 30.12"   Gusts: NA
Location:  37.94°N, 90.72°W
Report Text: KFAM 221735Z AUTO 15009KT 10SM BKN036 BKN048 OVC075 11/09 A3012 RMK AO1
Loading
Personal Weather Stations






























Interactive Weather Map New forecast layout! Learn more

10-Day Weather Forecast

Advertisements
Track Severe Weather on mobile